Contact Us:
Email: info@sawbill.com
Phone: (218)663-7150
Fax: (218)663-7980
Mail: 4620 Sawbill Trail
Box 2129
Tofte, MN 55615


Powered by
Movable Type 3.15
 
Sawbill Weather History Archives: July 2011
Current Sawbill Weather History | « June 2011 | August 2011 »


Date

High
Temperature

Low
Temperature

Barometric
Pressure

Relative
Humidity 7AM

9 AM
Temperature

Moisture

Snow

7/31/11 78 58 29.91 76% 59 0
7/30/11 76 55 29.94 82% 60 .18"
7/29/11 82 5o 29.92 98% 50 0
7/28/11 83 61 29.82 85% 61 0
7/27/11 69 61 29.89 96% 65 .13"
7/26/11 73 57 29.71 77% 59 0
7/25/11 75 55 29.85 84% 57 0
7/24/11 70 53 29.83 85% 60 0
7/23/11 63 52 29.91 82% 53 .04"
7/22/11 82 55 29.91 62% 55 0
7/21/11 83 65 29.74 68% 66 0
7/20/11 87 67 29.80 74% 69 0
7/19/11 81 61 29.62 98% 66 .12"
7/18/11 88 61 29.91 74% 61 0
7/17/11 91 71 29.92 88% 73 0
7/16/11 84 67 29.91 95% 71 0
7/15/11 67 59 29.85 98% 67 .08"
7/14/11 70 50 29.85 93% 59 0
7/13/11 68 46 29.97 81% 50 0
7/12/11 64 50 30.09 81% 53 0
7/11/11 78 58 29.88 82% 59 0
7/10/11 80 62 29.71 72% 65 0
7/9/11 67 56 29.71 98% 62 .43"
7/8/11 74 54 29.77 72% 59 0
7/7/11 76 58 29.83 93% 59 .18"
7/6/11 77 54 29.85 79% 58 0
7/5/11 76 54 29.91 75% 54 0
7/4/11 81 58 29.80 94% 63 .52"
7/3/11 75 56 29.85 81% 58 0
7/2/11 74 55 29.94 80% 56 0
7/1/11 85 63 29.85 85% 65 .21"
 


Home I Trip Planning I Rentals and Outfitting I Reservations I Campgrounds I Sawbill Store I Sawbill News I Contact

© 1997 - 2017, Sawbill Canoe Outfitters, Inc. I Privacy Policy